Time;durP1;ratioP1;P1;durP2;ratioP2;P2;SDS_P1;SDS_P2;PMS_P1;PMS_P2;Temp;Humidity;BMP_temperature;BMP_pressure;BME280_temperature;BME280_humidity;BME280_pressure;Samples;Min_cycle;Max_cycle;Signal;HPM_P1;HPM_P2
2021/10/11 00:00:16;;;;;;;113.60;64.23;;;9.60;99.90;;;;;;5051158;28;20233;-58
2021/10/11 00:02:42;;;;;;;116.47;63.20;;;9.60;99.90;;;;;;5055063;28;20251;-58
2021/10/11 00:05:11;;;;;;;110.67;61.57;;;9.60;99.90;;;;;;5054938;28;20208;-60
2021/10/11 00:07:40;;;;;;;117.60;64.07;;;9.60;99.90;;;;;;5055110;28;20299;-58
2021/10/11 00:10:08;;;;;;;112.73;61.70;;;9.60;99.90;;;;;;5055140;28;20257;-62
2021/10/11 00:12:35;;;;;;;113.90;60.40;;;9.60;99.90;;;;;;5054936;28;20210;-57
2021/10/11 00:15:02;;;;;;;119.87;63.57;;;9.70;99.90;;;;;;5054718;28;20213;-56
2021/10/11 00:17:29;;;;;;;109.93;60.13;;;9.70;99.90;;;;;;5054939;28;20777;-60
2021/10/11 00:19:55;;;;;;;110.83;62.13;;;9.70;99.90;;;;;;5054607;28;20228;-60
2021/10/11 00:22:22;;;;;;;120.67;63.97;;;9.70;99.90;;;;;;5054884;28;20221;-60
2021/10/11 00:24:50;;;;;;;116.00;63.80;;;9.80;99.90;;;;;;5054328;28;20265;-61
2021/10/11 00:27:17;;;;;;;118.20;64.90;;;9.90;1.00;;;;;;5054579;28;20705;-59
2021/10/11 00:29:44;;;;;;;121.73;65.53;;;9.90;1.00;;;;;;5054798;28;20320;-58
2021/10/11 00:32:11;;;;;;;118.43;62.67;;;10.00;1.00;;;;;;5054626;28;20735;-58
2021/10/11 00:34:38;;;;;;;117.90;63.77;;;10.00;1.00;;;;;;5054229;28;20731;-61
2021/10/11 00:37:05;;;;;;;112.33;63.47;;;10.10;1.00;;;;;;5054591;28;20633;-59
2021/10/11 00:39:32;;;;;;;117.47;62.60;;;10.10;1.00;;;;;;5054516;28;20303;-60
2021/10/11 00:42:00;;;;;;;112.13;61.83;;;10.20;1.00;;;;;;5054176;28;20607;-59
2021/10/11 00:44:27;;;;;;;103.97;60.30;;;10.20;99.90;;;;;;5054315;28;20676;-57
2021/10/11 00:46:54;;;;;;;114.33;62.40;;;10.20;99.90;;;;;;5054101;28;20410;-61
2021/10/11 00:49:21;;;;;;;111.70;63.13;;;10.30;99.90;;;;;;5054358;28;20291;-57
2021/10/11 00:51:48;;;;;;;113.30;63.03;;;10.30;99.90;;;;;;5054156;28;20261;-60
2021/10/11 00:54:15;;;;;;;115.87;64.00;;;10.30;99.90;;;;;;5054160;28;20275;-61
2021/10/11 00:56:42;;;;;;;109.60;62.83;;;10.30;99.90;;;;;;5054054;28;20622;-61
2021/10/11 00:59:10;;;;;;;111.73;64.93;;;10.30;99.90;;;;;;5054180;28;20233;-61
2021/10/11 01:01:37;;;;;;;115.90;62.53;;;10.30;99.90;;;;;;5054209;28;20202;-59
2021/10/11 01:04:06;;;;;;;107.53;61.70;;;10.30;99.90;;;;;;5053912;28;20237;-61
2021/10/11 01:06:33;;;;;;;113.10;63.37;;;10.30;99.90;;;;;;5053615;28;20209;-60
2021/10/11 01:09:00;;;;;;;107.00;62.47;;;10.40;99.90;;;;;;5053614;28;20263;-61
2021/10/11 01:11:26;;;;;;;111.03;62.27;;;10.40;95.40;;;;;;5053628;28;20205;-61
2021/10/11 01:13:53;;;;;;;101.47;61.87;;;10.40;58.20;;;;;;5054012;28;20198;-62
2021/10/11 01:16:21;;;;;;;113.60;63.47;;;10.40;41.50;;;;;;5053444;28;20338;-59
2021/10/11 01:18:48;;;;;;;112.03;63.23;;;10.40;1.00;;;;;;5053823;28;20205;-61
2021/10/11 01:21:16;;;;;;;103.33;61.37;;;10.40;1.00;;;;;;5053537;28;20275;-61
2021/10/11 01:23:43;;;;;;;104.70;61.03;;;10.50;1.00;;;;;;5053697;28;20267;-61
2021/10/11 01:26:10;;;;;;;104.40;60.67;;;10.50;1.00;;;;;;5053381;28;20209;-61
2021/10/11 01:28:36;;;;;;;109.60;61.67;;;10.50;1.00;;;;;;5053743;28;20209;-58
2021/10/11 01:31:03;;;;;;;114.73;63.27;;;10.50;1.00;;;;;;5053407;28;20230;-61
2021/10/11 01:33:30;;;;;;;104.00;59.57;;;10.60;1.00;;;;;;5053471;28;20729;-58
2021/10/11 01:35:57;;;;;;;108.37;60.07;;;10.60;1.00;;;;;;5052830;28;20217;-60
2021/10/11 01:38:25;;;;;;;110.03;60.57;;;10.60;99.90;;;;;;5053262;28;20263;-59
2021/10/11 01:40:52;;;;;;;105.10;62.60;;;10.60;99.90;;;;;;5053205;28;20714;-59
2021/10/11 01:43:18;;;;;;;110.53;59.57;;;10.60;99.90;;;;;;5053271;28;20652;-59
2021/10/11 01:45:49;;;;;;;109.37;61.50;;;10.60;99.90;;;;;;5053018;28;20275;-59
2021/10/11 01:48:16;;;;;;;104.37;60.77;;;10.70;99.90;;;;;;5053187;28;20209;-60
2021/10/11 01:50:42;;;;;;;107.90;60.20;;;10.60;1.00;;;;;;5052808;28;20291;-59
2021/10/11 01:53:09;;;;;;;110.63;59.93;;;10.70;1.00;;;;;;5053204;28;20205;-58
2021/10/11 01:55:37;;;;;;;101.37;58.93;;;10.70;1.00;;;;;;5052826;28;20255;-58
2021/10/11 01:58:04;;;;;;;101.67;60.33;;;10.70;1.00;;;;;;5053129;28;20209;-59
2021/10/11 02:00:31;;;;;;;109.00;59.67;;;10.70;1.00;;;;;;5052840;28;20784;-61
2021/10/11 02:02:57;;;;;;;104.53;58.30;;;10.80;1.00;;;;;;5052781;28;20247;-59
2021/10/11 02:05:24;;;;;;;107.67;60.60;;;10.80;99.90;;;;;;5052593;28;20209;-61
2021/10/11 02:07:51;;;;;;;108.27;60.80;;;10.80;99.90;;;;;;5053266;28;20259;-56
2021/10/11 02:10:17;;;;;;;101.87;59.83;;;10.80;99.90;;;;;;5052864;28;20225;-61
2021/10/11 02:12:45;;;;;;;107.30;60.40;;;10.80;99.90;;;;;;5052810;28;20209;-61
2021/10/11 02:15:12;;;;;;;104.77;59.90;;;10.80;99.90;;;;;;5052392;28;20213;-60
2021/10/11 02:17:39;;;;;;;105.23;59.83;;;10.80;1.00;;;;;;5052477;28;20263;-59
2021/10/11 02:20:07;;;;;;;106.77;59.33;;;10.80;99.90;;;;;;5052770;28;20225;-60
2021/10/11 02:22:34;;;;;;;102.33;60.50;;;10.80;99.90;;;;;;5052694;28;20205;-61
2021/10/11 02:25:00;;;;;;;109.40;59.80;;;10.90;99.90;;;;;;5051484;28;20678;-62
2021/10/11 02:27:27;;;;;;;109.83;61.43;;;10.80;1.00;;;;;;5052485;28;20586;-61
2021/10/11 02:29:55;;;;;;;108.63;61.10;;;10.90;1.00;;;;;;5052399;28;20230;-61
2021/10/11 02:32:23;;;;;;;108.50;59.83;;;10.90;1.00;;;;;;5052330;28;20616;-59
2021/10/11 02:34:50;;;;;;;107.23;62.10;;;10.90;1.00;;;;;;5052235;28;20209;-61
2021/10/11 02:37:16;;;;;;;112.90;62.83;;;10.90;1.00;;;;;;5052318;28;20217;-62
2021/10/11 02:39:43;;;;;;;111.97;63.40;;;10.80;1.00;;;;;;5052230;28;20221;-61
2021/10/11 02:42:10;;;;;;;109.63;63.33;;;10.80;99.90;;;;;;5052342;28;20585;-61
2021/10/11 02:44:37;;;;;;;122.20;63.37;;;10.80;99.90;;;;;;5051603;28;20791;-62
2021/10/11 02:47:05;;;;;;;120.57;64.57;;;10.70;99.90;;;;;;5052349;28;20283;-61
2021/10/11 02:49:31;;;;;;;128.03;68.47;;;10.70;99.90;;;;;;5051980;28;20722;-61
2021/10/11 02:51:58;;;;;;;124.83;69.70;;;10.70;99.90;;;;;;5051954;28;20217;-61
2021/10/11 02:54:25;;;;;;;129.20;66.47;;;10.70;99.90;;;;;;5051961;28;20205;-60
2021/10/11 02:56:51;;;;;;;135.70;71.23;;;10.70;99.90;;;;;;5051765;28;20217;-60
2021/10/11 02:59:18;;;;;;;150.77;73.57;;;10.60;99.90;;;;;;5051853;28;20279;-61
2021/10/11 03:01:45;;;;;;;152.47;73.70;;;10.60;1.00;;;;;;5052037;28;20256;-61
2021/10/11 03:04:13;;;;;;;155.67;74.20;;;10.50;1.00;;;;;;5052005;28;20229;-61
2021/10/11 03:06:39;;;;;;;164.40;74.73;;;10.40;1.00;;;;;;5051488;28;20213;-60
2021/10/11 03:09:06;;;;;;;168.53;79.93;;;10.40;1.00;;;;;;5051915;28;20221;-61
2021/10/11 03:11:33;;;;;;;185.00;79.40;;;10.40;1.00;;;;;;5051752;28;20236;-60
2021/10/11 03:14:00;;;;;;;186.77;79.43;;;10.40;1.00;;;;;;5051610;28;20205;-58
2021/10/11 03:16:26;;;;;;;180.13;78.80;;;10.40;1.00;;;;;;5051456;28;20205;-57
2021/10/11 03:18:53;;;;;;;165.17;74.63;;;10.40;20.30;;;;;;5051820;28;20208;-57
2021/10/11 03:21:21;;;;;;;168.83;73.00;;;10.40;49.00;;;;;;5051796;28;20259;-62
2021/10/11 03:23:49;;;;;;;163.20;73.13;;;10.40;52.50;;;;;;5051779;28;20259;-61
2021/10/11 03:26:16;;;;;;;174.50;73.97;;;10.50;61.40;;;;;;5051375;28;20311;-62
2021/10/11 03:28:43;;;;;;;160.40;65.27;;;10.40;76.10;;;;;;5051426;28;20205;-61
2021/10/11 03:31:09;;;;;;;132.73;57.30;;;10.40;94.90;;;;;;5051772;28;20205;-61
2021/10/11 03:33:36;;;;;;;106.10;48.60;;;10.50;99.90;;;;;;5051682;28;20312;-60
2021/10/11 03:36:03;;;;;;;111.63;51.20;;;10.60;99.90;;;;;;5054868;28;20209;-60
2021/10/11 03:38:31;;;;;;;105.17;47.50;;;10.60;99.90;;;;;;5055786;28;20216;-56
2021/10/11 03:40:58;;;;;;;101.17;48.37;;;10.70;99.90;;;;;;5055570;28;20637;-61
2021/10/11 03:43:25;;;;;;;93.17;44.17;;;10.80;99.90;;;;;;5055591;28;20221;-61
2021/10/11 03:45:51;;;;;;;85.53;41.60;;;10.90;99.90;;;;;;5055158;28;20212;-59
2021/10/11 03:48:18;;;;;;;79.37;38.13;;;11.00;96.10;;;;;;5055388;28;20213;-60
2021/10/11 03:50:46;;;;;;;89.43;45.60;;;11.00;93.10;;;;;;5055195;28;20233;-61
2021/10/11 03:53:13;;;;;;;87.03;43.83;;;11.00;98.30;;;;;;5055513;28;20243;-59
2021/10/11 03:55:41;;;;;;;88.30;40.70;;;11.00;99.90;;;;;;5054782;28;20650;-61
2021/10/11 03:58:08;;;;;;;95.80;43.07;;;11.00;99.90;;;;;;5055421;28;20267;-60
2021/10/11 04:00:36;;;;;;;94.63;42.90;;;11.00;99.90;;;;;;5055340;28;20316;-61
2021/10/11 04:03:04;;;;;;;103.53;44.30;;;11.00;99.90;;;;;;5055191;28;20206;-59
2021/10/11 04:05:31;;;;;;;98.60;43.40;;;11.00;99.90;;;;;;5054678;28;20231;-61
2021/10/11 04:08:01;;;;;;;104.67;43.20;;;11.10;99.90;;;;;;5054961;28;20205;-60
2021/10/11 04:10:31;;;;;;;97.13;42.80;;;11.10;99.90;;;;;;5055128;28;20280;-61
2021/10/11 04:13:02;;;;;;;89.70;43.83;;;11.10;99.90;;;;;;5055084;28;20202;-61
2021/10/11 04:15:29;;;;;;;89.17;42.63;;;11.20;99.90;;;;;;5054624;28;20206;-62
2021/10/11 04:17:56;;;;;;;80.33;40.73;;;11.20;99.90;;;;;;5051434;28;20701;-61
2021/10/11 04:20:23;;;;;;;80.60;40.17;;;11.30;99.70;;;;;;5054404;28;20283;-60
2021/10/11 04:22:50;;;;;;;80.13;40.53;;;11.30;97.30;;;;;;5054327;28;20211;-61
2021/10/11 04:25:16;;;;;;;86.20;41.20;;;11.30;93.60;;;;;;5054178;28;20233;-62
2021/10/11 04:27:43;;;;;;;86.20;41.33;;;11.20;91.40;;;;;;5053803;28;20610;-62
2021/10/11 04:30:11;;;;;;;84.13;42.93;;;11.30;95.90;;;;;;5051968;28;20275;-62
2021/10/11 04:32:38;;;;;;;85.90;42.03;;;11.40;77.90;;;;;;5053763;28;20261;-60
2021/10/11 04:35:05;;;;;;;82.23;41.13;;;11.40;68.70;;;;;;5053652;28;20198;-60
2021/10/11 04:37:32;;;;;;;97.30;43.90;;;11.40;54.40;;;;;;5054359;28;20268;-61
2021/10/11 04:39:59;;;;;;;120.60;45.87;;;11.30;66.00;;;;;;5054108;28;20299;-61
2021/10/11 04:42:25;;;;;;;133.60;46.70;;;11.20;96.30;;;;;;5054158;28;20271;-62
2021/10/11 04:44:52;;;;;;;132.37;48.97;;;11.10;99.90;;;;;;5053220;28;20284;-61
2021/10/11 04:47:20;;;;;;;134.07;47.83;;;11.10;99.90;;;;;;5053298;28;20248;-61
2021/10/11 04:49:47;;;;;;;141.93;49.73;;;11.00;99.90;;;;;;5053388;28;20249;-61
2021/10/11 04:52:13;;;;;;;144.97;49.83;;;11.00;99.90;;;;;;5054020;28;20217;-61
2021/10/11 04:54:40;;;;;;;147.50;50.17;;;11.00;99.90;;;;;;5053886;28;20205;-62
2021/10/11 04:57:07;;;;;;;148.97;49.37;;;11.00;99.90;;;;;;5054149;28;20205;-62
2021/10/11 04:59:33;;;;;;;142.10;49.60;;;11.00;99.90;;;;;;5053789;28;20229;-61
2021/10/11 05:02:00;;;;;;;159.77;49.87;;;11.00;99.90;;;;;;5053832;28;20252;-63
2021/10/11 05:04:28;;;;;;;141.17;48.57;;;10.90;99.90;;;;;;5053652;28;20233;-61
2021/10/11 05:06:54;;;;;;;132.83;46.50;;;10.90;99.90;;;;;;5053626;28;20213;-60
2021/10/11 05:09:21;;;;;;;136.60;46.70;;;11.00;99.90;;;;;;5053587;28;20629;-62
2021/10/11 05:11:48;;;;;;;143.57;45.87;;;11.00;99.90;;;;;;5053549;28;20263;-62
2021/10/11 05:14:14;;;;;;;132.73;45.43;;;10.90;99.90;;;;;;5053750;28;20228;-62
2021/10/11 05:16:41;;;;;;;140.63;44.57;;;11.00;99.90;;;;;;5053318;28;20670;-62
2021/10/11 05:19:09;;;;;;;130.07;43.90;;;11.00;99.90;;;;;;5053308;28;20697;-63
2021/10/11 05:21:38;;;;;;;117.13;41.13;;;11.00;99.90;;;;;;5052152;28;20220;-62
2021/10/11 05:24:05;;;;;;;121.40;41.93;;;11.00;99.90;;;;;;5053326;28;20245;-61
2021/10/11 05:26:31;;;;;;;110.53;39.90;;;11.00;99.90;;;;;;5053277;28;20641;-62
2021/10/11 05:28:58;;;;;;;103.70;38.07;;;11.00;99.90;;;;;;5053322;28;20206;-62
2021/10/11 05:31:25;;;;;;;110.80;39.10;;;11.10;99.90;;;;;;5053345;28;20263;-62
2021/10/11 05:33:52;;;;;;;102.77;36.90;;;11.10;99.90;;;;;;5053631;28;20255;-63
2021/10/11 05:36:19;;;;;;;100.20;35.40;;;11.10;99.90;;;;;;5047122;28;20268;-63
2021/10/11 05:38:47;;;;;;;86.43;32.77;;;11.10;99.90;;;;;;5052290;28;20255;-63
2021/10/11 05:41:13;;;;;;;92.17;33.33;;;11.10;99.90;;;;;;5052868;28;20263;-63
2021/10/11 05:43:40;;;;;;;86.20;32.63;;;11.10;99.90;;;;;;5052920;28;20209;-63
2021/10/11 05:46:07;;;;;;;85.20;31.77;;;11.10;99.90;;;;;;5052308;28;20209;-62
2021/10/11 05:48:33;;;;;;;78.53;30.60;;;11.10;99.90;;;;;;5052742;28;20618;-63
2021/10/11 05:51:00;;;;;;;81.60;30.23;;;11.10;99.90;;;;;;5052845;28;20260;-64
2021/10/11 05:53:27;;;;;;;83.27;30.93;;;11.10;99.90;;;;;;5052790;28;20198;-63
2021/10/11 05:55:55;;;;;;;80.83;28.67;;;11.00;99.90;;;;;;5052750;28;20206;-60
2021/10/11 05:58:22;;;;;;;80.43;29.10;;;11.00;99.90;;;;;;5052420;28;20205;-62
2021/10/11 06:00:48;;;;;;;80.93;28.60;;;11.00;99.90;;;;;;5052883;28;20286;-63
2021/10/11 06:03:15;;;;;;;72.70;26.87;;;11.10;99.90;;;;;;5053047;28;20201;-62
2021/10/11 06:05:42;;;;;;;72.77;26.63;;;11.10;99.90;;;;;;5052084;28;20233;-63
2021/10/11 06:08:08;;;;;;;70.03;24.93;;;11.10;99.90;;;;;;5052232;28;20727;-63
2021/10/11 06:10:36;;;;;;;61.80;23.73;;;11.10;99.90;;;;;;5052460;28;20230;-62
2021/10/11 06:13:04;;;;;;;63.40;23.43;;;11.20;99.90;;;;;;5052575;28;20228;-62
2021/10/11 06:15:31;;;;;;;56.57;20.40;;;11.20;99.90;;;;;;5051983;28;20206;-63
2021/10/11 06:17:57;;;;;;;41.53;19.03;;;11.30;99.90;;;;;;5052540;28;20210;-61
2021/10/11 06:20:25;;;;;;;44.50;18.53;;;11.30;99.90;;;;;;5052294;28;20225;-61
2021/10/11 06:22:51;;;;;;;39.07;17.03;;;11.30;99.90;;;;;;5051632;28;20205;-62
2021/10/11 06:25:18;;;;;;;42.37;18.07;;;11.30;99.90;;;;;;5051701;28;20233;-60
2021/10/11 06:27:45;;;;;;;40.10;16.93;;;11.20;99.90;;;;;;5051550;28;20216;-61
2021/10/11 06:30:13;;;;;;;40.47;16.07;;;11.20;99.90;;;;;;5052127;28;20223;-62
2021/10/11 06:32:40;;;;;;;37.17;15.67;;;11.20;99.90;;;;;;5052153;28;20219;-64
2021/10/11 06:35:08;;;;;;;36.23;14.20;;;11.20;99.90;;;;;;5051638;28;20896;-63
2021/10/11 06:37:35;;;;;;;33.63;15.13;;;11.20;99.90;;;;;;5051536;28;20249;-61
2021/10/11 06:40:01;;;;;;;26.43;13.40;;;11.30;99.90;;;;;;5051631;28;20221;-63
2021/10/11 06:42:28;;;;;;;30.13;13.60;;;11.40;99.90;;;;;;5051242;28;20213;-61
2021/10/11 06:44:55;;;;;;;27.27;12.27;;;11.40;99.90;;;;;;5050818;28;20280;-63
2021/10/11 06:47:23;;;;;;;23.63;12.13;;;11.40;99.90;;;;;;5051766;28;20305;-60
2021/10/11 06:49:50;;;;;;;26.37;11.97;;;11.40;99.90;;;;;;5051671;28;20225;-63
2021/10/11 06:52:17;;;;;;;26.77;12.33;;;11.40;99.90;;;;;;5051879;28;20691;-62
2021/10/11 06:54:43;;;;;;;25.47;11.93;;;11.40;99.90;;;;;;5051206;28;20212;-62
2021/10/11 06:57:10;;;;;;;27.20;12.67;;;11.30;99.90;;;;;;5051598;28;20214;-62
2021/10/11 06:59:38;;;;;;;26.10;12.20;;;11.30;99.90;;;;;;5051705;28;20743;-62
2021/10/11 07:02:05;;;;;;;27.87;11.80;;;11.40;99.90;;;;;;5051694;28;20289;-63
2021/10/11 07:04:33;;;;;;;26.57;11.50;;;11.40;99.90;;;;;;5051237;28;20702;-62
2021/10/11 07:06:59;;;;;;;25.37;12.03;;;11.40;99.90;;;;;;5051264;28;20206;-62
2021/10/11 07:09:26;;;;;;;30.10;11.67;;;11.30;99.90;;;;;;5051227;28;20230;-63
2021/10/11 07:11:53;;;;;;;34.40;12.97;;;11.40;99.90;;;;;;5052051;28;20207;-61
2021/10/11 07:14:20;;;;;;;37.73;13.40;;;11.30;99.90;;;;;;5051609;28;20206;-62
2021/10/11 07:16:47;;;;;;;23.97;11.43;;;11.20;99.90;;;;;;5051312;28;20205;-62
2021/10/11 07:19:14;;;;;;;36.67;12.20;;;11.20;99.90;;;;;;5051288;28;20634;-61
2021/10/11 07:21:42;;;;;;;27.57;12.73;;;11.30;99.90;;;;;;5051115;28;20202;-62
2021/10/11 07:24:11;;;;;;;27.67;13.03;;;11.30;99.90;;;;;;5051137;28;20239;-61
2021/10/11 07:26:39;;;;;;;30.03;12.73;;;11.30;99.90;;;;;;5050701;28;20213;-62
2021/10/11 07:29:06;;;;;;;30.70;13.00;;;11.40;99.90;;;;;;5051109;28;20321;-61
2021/10/11 07:31:33;;;;;;;25.13;11.17;;;11.50;99.90;;;;;;5051042;28;20296;-61
2021/10/11 07:33:59;;;;;;;29.37;12.07;;;11.60;99.90;;;;;;5051291;28;20209;-61
2021/10/11 07:36:26;;;;;;;27.47;11.73;;;11.60;99.90;;;;;;5050337;28;20209;-62
2021/10/11 07:38:54;;;;;;;27.97;12.43;;;11.70;92.10;;;;;;5051135;28;20263;-62
2021/10/11 07:41:20;;;;;;;28.07;11.47;;;11.70;72.30;;;;;;5051076;28;20206;-63
2021/10/11 07:43:47;;;;;;;23.83;12.13;;;11.70;77.40;;;;;;5051250;28;20213;-63
2021/10/11 07:46:14;;;;;;;27.47;12.27;;;11.80;62.20;;;;;;5050740;28;20229;-63
2021/10/11 07:48:41;;;;;;;23.37;11.73;;;11.90;36.80;;;;;;5050802;28;20214;-62
2021/10/11 07:51:08;;;;;;;20.23;11.93;;;11.90;1.00;;;;;;5050747;28;20220;-66
2021/10/11 07:53:35;;;;;;;21.70;12.27;;;11.90;1.00;;;;;;5050987;28;20223;-62
2021/10/11 07:56:03;;;;;;;22.33;11.43;;;11.90;1.00;;;;;;5050702;28;20669;-62
2021/10/11 07:58:30;;;;;;;21.93;12.67;;;12.00;1.00;;;;;;5050483;28;20726;-63
2021/10/11 08:00:56;;;;;;;21.97;11.17;;;12.00;1.00;;;;;;5050640;28;20226;-62
2021/10/11 08:03:25;;;;;;;19.60;11.13;;;12.00;1.00;;;;;;5050689;28;20211;-63
2021/10/11 08:05:52;;;;;;;22.47;11.77;;;12.10;1.00;;;;;;5050500;28;20230;-63
2021/10/11 08:08:19;;;;;;;21.33;10.37;;;12.10;1.00;;;;;;5050785;28;20206;-63
2021/10/11 08:10:46;;;;;;;17.83;9.67;;;12.20;99.90;;;;;;5050795;28;20643;-63
2021/10/11 08:13:14;;;;;;;22.47;10.57;;;12.10;99.90;;;;;;5050801;28;20228;-64
2021/10/11 08:15:41;;;;;;;20.23;9.73;;;12.20;99.90;;;;;;5050443;28;20205;-65
2021/10/11 08:18:07;;;;;;;19.37;8.83;;;12.20;99.90;;;;;;5050180;28;20204;-62
2021/10/11 08:20:34;;;;;;;19.50;8.57;;;12.20;99.90;;;;;;5050762;28;20319;-64
2021/10/11 08:23:02;;;;;;;15.77;8.43;;;12.20;99.90;;;;;;5053307;28;20709;-63
2021/10/11 08:25:28;;;;;;;19.47;8.53;;;12.20;84.00;;;;;;5053912;28;20229;-65
2021/10/11 08:27:55;;;;;;;17.97;9.00;;;12.10;58.10;;;;;;5054093;28;20208;-63
2021/10/11 08:30:23;;;;;;;19.30;8.50;;;12.20;99.90;;;;;;5053811;28;20227;-63
2021/10/11 08:32:50;;;;;;;15.30;7.50;;;12.20;99.90;;;;;;5053789;28;20212;-62
2021/10/11 08:35:17;;;;;;;16.70;7.40;;;12.20;80.70;;;;;;5053787;28;20206;-65
2021/10/11 08:37:43;;;;;;;16.33;7.27;;;12.30;99.90;;;;;;5054018;28;20212;-66
2021/10/11 08:40:11;;;;;;;10.93;6.57;;;12.30;99.90;;;;;;5294992;22;20228;-66
2021/10/11 08:42:38;;;;;;;14.83;7.33;;;12.30;99.90;;;;;;5053971;28;20216;-66
2021/10/11 08:45:07;;;;;;;18.20;7.77;;;12.40;1.00;;;;;;5053292;28;20283;-66
2021/10/11 08:47:35;;;;;;;18.07;6.80;;;12.40;1.00;;;;;;5054068;28;20209;-64
2021/10/11 08:50:02;;;;;;;16.73;7.83;;;12.40;1.00;;;;;;5054120;28;20231;-63
2021/10/11 08:52:28;;;;;;;14.80;7.10;;;12.40;1.00;;;;;;5053810;28;20211;-62
2021/10/11 08:54:55;;;;;;;17.93;6.43;;;12.40;1.00;;;;;;5053665;28;20212;-60
2021/10/11 08:57:24;;;;;;;14.93;6.83;;;12.50;1.00;;;;;;5051266;28;20577;-63
2021/10/11 08:59:53;;;;;;;15.20;6.23;;;12.60;99.90;;;;;;5037486;28;20235;-62
2021/10/11 09:02:24;;;;;;;13.40;5.70;;;12.50;99.90;;;;;;5041731;28;20792;-60
2021/10/11 09:04:56;;;;;;;15.17;6.53;;;12.40;99.90;;;;;;5053327;28;20215;-63
2021/10/11 09:07:24;;;;;;;14.23;5.60;;;12.40;99.90;;;;;;5053115;28;20756;-63
2021/10/11 09:09:52;;;;;;;10.93;4.17;;;12.20;1.00;;;;;;5052535;28;20221;-63
2021/10/11 09:12:20;;;;;;;9.93;4.70;;;11.80;1.00;;;;;;5013441;28;20676;-63
2021/10/11 09:14:52;;;;;;;12.93;5.07;;;11.60;1.00;;;;;;5013285;28;20215;-66
2021/10/11 09:17:23;;;;;;;13.57;4.20;;;11.60;99.90;;;;;;5013468;28;20565;-67
2021/10/11 09:19:58;;;;;;;19.90;6.13;;;11.50;1.00;;;;;;5013484;28;20229;-66
2021/10/11 09:22:32;;;;;;;10.83;4.20;;;11.50;99.90;;;;;;5013658;28;20418;-65
2021/10/11 09:24:59;;;;;;;16.17;4.37;;;11.40;99.90;;;;;;5013450;28;20223;-63
2021/10/11 09:27:26;;;;;;;14.50;5.20;;;11.30;1.00;;;;;;5013263;28;20671;-63
2021/10/11 09:29:53;;;;;;;12.57;4.90;;;11.30;1.00;;;;;;5017616;28;20254;-62
2021/10/11 09:32:19;;;;;;;14.07;4.93;;;11.30;1.00;;;;;;5052531;28;20205;-62
2021/10/11 09:34:47;;;;;;;12.17;5.13;;;11.20;1.00;;;;;;5052486;28;20259;-63
2021/10/11 09:37:17;;;;;;;13.73;5.17;;;11.20;1.00;;;;;;5052238;28;20210;-63
2021/10/11 09:39:44;;;;;;;13.13;5.07;;;11.30;1.00;;;;;;5052865;28;20336;-65
2021/10/11 09:42:17;;;;;;;12.43;5.40;;;11.30;1.00;;;;;;5053171;28;20207;-64
2021/10/11 09:44:52;;;;;;;14.37;4.60;;;11.40;1.00;;;;;;5052566;28;20263;-64
2021/10/11 09:47:26;;;;;;;10.57;4.27;;;11.60;1.00;;;;;;5052771;28;20209;-62
2021/10/11 09:49:53;;;;;;;15.60;4.83;;;11.70;1.00;;;;;;5050475;28;20316;-62
2021/10/11 09:52:22;;;;;;;12.23;3.93;;;11.90;1.00;;;;;;5032808;28;20213;-64
2021/10/11 09:54:49;;;;;;;8.47;3.27;;;11.90;99.90;;;;;;5032349;28;20212;-65
2021/10/11 09:57:16;;;;;;;12.63;3.00;;;11.90;99.90;;;;;;5032397;28;20647;-66
2021/10/11 09:59:44;;;;;;;9.47;2.57;;;12.10;1.00;;;;;;5032407;28;20288;-68
2021/10/11 10:02:12;;;;;;;14.83;3.17;;;12.20;1.00;;;;;;5032407;28;20234;-67
2021/10/11 10:04:41;;;;;;;9.23;2.67;;;12.20;99.90;;;;;;5032246;28;20800;-66
2021/10/11 10:07:10;;;;;;;9.63;2.63;;;12.20;1.00;;;;;;5032024;28;20557;-66
2021/10/11 10:09:46;;;;;;;9.10;2.23;;;12.40;1.00;;;;;;5032326;28;20229;-63
2021/10/11 10:12:14;;;;;;;7.90;2.30;;;12.40;99.90;;;;;;5012635;28;20254;-65
2021/10/11 10:14:41;;;;;;;10.03;2.63;;;12.40;99.90;;;;;;5012136;28;20209;-63
2021/10/11 10:17:08;;;;;;;10.43;2.80;;;12.40;99.90;;;;;;5012475;28;20233;-66
2021/10/11 10:19:36;;;;;;;11.43;2.43;;;12.50;99.90;;;;;;5012521;28;20604;-63
2021/10/11 10:22:13;;;;;;;6.47;2.27;;;12.60;1.00;;;;;;5012627;28;20215;-62
2021/10/11 10:24:41;;;;;;;10.77;2.80;;;12.60;40.30;;;;;;5011871;28;20352;-62
2021/10/11 10:27:10;;;;;;;10.57;2.53;;;12.70;99.90;;;;;;5012044;28;20265;-63
2021/10/11 10:29:44;;;;;;;6.50;1.87;;;12.80;1.00;;;;;;5012045;28;20261;-61
2021/10/11 10:32:13;;;;;;;11.57;2.50;;;12.90;1.00;;;;;;5051970;28;20265;-62
2021/10/11 10:34:40;;;;;;;9.40;1.87;;;13.10;99.90;;;;;;5051456;28;20217;-63
2021/10/11 10:37:09;;;;;;;10.10;2.93;;;13.30;99.90;;;;;;5051337;28;20602;-63
2021/10/11 10:39:37;;;;;;;10.93;2.63;;;13.40;99.90;;;;;;5051361;28;20322;-61
2021/10/11 10:42:08;;;;;;;7.13;1.90;;;13.30;1.00;;;;;;5051588;28;20209;-66
2021/10/11 10:44:43;;;;;;;14.93;2.73;;;13.30;99.90;;;;;;5050783;28;20255;-63
2021/10/11 10:47:10;;;;;;;9.27;2.00;;;13.30;99.90;;;;;;5051304;28;20610;-66
2021/10/11 10:49:38;;;;;;;7.23;1.87;;;13.30;99.90;;;;;;5051450;28;20668;-65
2021/10/11 10:52:10;;;;;;;10.30;2.50;;;13.40;1.00;;;;;;5051599;28;20208;-65
2021/10/11 10:54:39;;;;;;;8.57;2.90;;;13.40;99.90;;;;;;5051162;28;20220;-65
2021/10/11 10:57:09;;;;;;;9.00;2.30;;;13.40;99.90;;;;;;5051004;28;20745;-63
2021/10/11 10:59:36;;;;;;;8.70;2.80;;;13.40;99.90;;;;;;5051462;28;20587;-62
2021/10/11 11:02:04;;;;;;;12.83;2.63;;;13.40;1.00;;;;;;5051441;28;20210;-63
2021/10/11 11:04:32;;;;;;;8.60;2.80;;;13.50;99.90;;;;;;5050927;28;20527;-65
2021/10/11 11:07:03;;;;;;;11.90;2.90;;;13.70;1.00;;;;;;5050543;28;20205;-64
2021/10/11 11:09:43;;;;;;;9.23;2.40;;;14.00;99.90;;;;;;5051089;28;20229;-64
2021/10/11 11:12:12;;;;;;;21.33;3.20;;;14.00;99.90;;;;;;5051284;28;20209;-64
2021/10/11 11:14:43;;;;;;;12.53;2.93;;;13.90;99.90;;;;;;5050763;28;20206;-64
2021/10/11 11:17:13;;;;;;;8.63;2.77;;;13.80;99.90;;;;;;5050561;28;20225;-65
2021/10/11 11:19:42;;;;;;;13.23;3.03;;;13.70;99.90;;;;;;5050934;28;20236;-64
2021/10/11 11:22:08;;;;;;;11.10;2.93;;;13.80;99.90;;;;;;5051192;28;20212;-65
2021/10/11 11:24:35;;;;;;;11.23;2.87;;;13.80;99.90;;;;;;5050852;28;20206;-64
2021/10/11 11:27:03;;;;;;;9.90;3.17;;;13.80;99.90;;;;;;5050859;28;20686;-63
2021/10/11 11:29:31;;;;;;;7.33;2.07;;;13.90;99.90;;;;;;5047745;28;20611;-63
2021/10/11 11:31:58;;;;;;;12.47;2.43;;;14.10;99.90;;;;;;5031343;28;20210;-62
2021/10/11 11:34:26;;;;;;;7.73;2.50;;;14.30;99.90;;;;;;5031478;28;20297;-64
2021/10/11 11:36:55;;;;;;;11.60;3.00;;;14.40;99.90;;;;;;5030805;28;20230;-64
2021/10/11 11:39:22;;;;;;;7.50;2.27;;;14.50;71.80;;;;;;5030785;28;20226;-63
2021/10/11 11:41:51;;;;;;;6.47;2.17;;;14.40;1.00;;;;;;5031269;28;20256;-65
2021/10/11 11:44:23;;;;;;;10.73;2.13;;;14.30;1.00;;;;;;5030766;28;20206;-66
2021/10/11 11:47:01;;;;;;;7.70;2.17;;;14.20;1.00;;;;;;5030760;28;20230;-66
2021/10/11 11:49:28;;;;;;;6.63;2.20;;;14.10;1.00;;;;;;5030973;28;20241;-65
2021/10/11 11:52:05;;;;;;;11.70;2.33;;;13.90;1.00;;;;;;5031073;28;20256;-66
2021/10/11 11:54:31;;;;;;;8.60;2.27;;;13.80;1.00;;;;;;5031004;28;20224;-65
2021/10/11 11:56:58;;;;;;;12.40;2.47;;;13.60;1.00;;;;;;5033102;28;20230;-64
2021/10/11 11:59:26;;;;;;;9.13;2.13;;;13.40;1.00;;;;;;5034598;28;20222;-63
2021/10/11 12:01:54;;;;;;;9.13;2.27;;;13.40;1.00;;;;;;5034873;28;20256;-65
2021/10/11 12:04:22;;;;;;;7.67;1.97;;;13.30;1.00;;;;;;5034873;28;20264;-64
2021/10/11 12:06:49;;;;;;;5.77;2.07;;;13.40;1.00;;;;;;5033985;28;20687;-64
2021/10/11 12:09:20;;;;;;;12.33;3.03;;;13.60;1.00;;;;;;5034153;28;20647;-64
2021/10/11 12:11:47;;;;;;;19.80;5.83;;;13.70;1.00;;;;;;5034810;28;20313;-64
2021/10/11 12:14:15;;;;;;;11.20;2.33;;;13.80;1.00;;;;;;5034511;28;20790;-65
2021/10/11 12:16:42;;;;;;;12.90;1.70;;;13.80;1.00;;;;;;5033996;28;20233;-63
2021/10/11 12:19:08;;;;;;;8.20;2.20;;;13.70;1.00;;;;;;5034159;28;20292;-63
2021/10/11 12:21:39;;;;;;;10.10;2.37;;;13.60;1.00;;;;;;5034660;28;20206;-63
2021/10/11 12:24:17;;;;;;;7.03;1.50;;;13.60;1.00;;;;;;5034295;28;20217;-63
2021/10/11 12:26:47;;;;;;;11.33;1.90;;;13.60;1.00;;;;;;5033947;28;20296;-63
2021/10/11 12:29:14;;;;;;;5.13;1.27;;;13.60;1.00;;;;;;5034150;28;20230;-64
2021/10/11 12:31:41;;;;;;;9.67;1.73;;;13.60;1.00;;;;;;5034396;28;20203;-64